Latest Weather Observations for Laverton

IDV60801

Issued at 1:02 pm EST Saturday 18 April 2015 (issued every 30 minutes, with the page automatically refreshed every 10 minutes)

About weather observations | Map of weather stations | Latest weather observations for VIC | Other Formats
Station Details ID: 087031 Name: LAVERTON RAAF Lat: -37.86 Lon: 144.76 Height: 20.1 m
Data from the previous 72 hours. | See also: Recent months at Laverton
Date/Time
EST
Temp
°C
App
Temp
°C
Dew
Point
Rel
Hum
%
Delta-T
°C
Wind Press
QNH
hPa
Press
MSL
hPa
Rain
since 9 am
mm
Dir
 
Spd
km/h
Gust
km/h
Spd
kts
Gust
kts
18/01:00pm 19.2 15.6 8.5 50 5.6 WNW 17 22 9 12 1012.0 1011.9 0.0
18/12:30pm 18.9 15.5 10.5 58 4.5 WNW 19 30 10 16 1012.4 1012.3 0.0
18/12:00pm 17.5 14.6 11.1 66 3.5 WNW 17 24 9 13 1013.2 1013.1 0.0
18/11:30am 16.6 13.4 11.3 71 2.9 WNW 19 26 10 14 1013.7 1013.6 0.0
18/11:00am 15.7 12.5 11.3 75 2.4 W 19 24 10 13 1013.9 1013.8 0.0
18/10:30am 15.7 13.1 12.1 79 2.0 WNW 17 24 9 13 1014.0 1013.9 0.0
18/10:00am 15.3 12.4 12.4 83 1.6 W 19 24 10 13 1014.2 1014.1 0.0
18/09:30am 14.5 13.3 12.9 90 0.9 WNW 11 17 6 9 1014.0 1013.9 0.0
18/09:00am 14.0 13.6 13.1 94 0.5 W 7 13 4 7 1014.3 1014.2 3.6
18/08:30am 13.8 13.1 13.2 96 0.3 W 9 17 5 9 1014.0 1013.9 3.6
18/08:00am 13.6 12.9 13.3 98 0.2 NW 9 13 5 7 1013.8 1013.7 3.6
18/07:30am 13.1 12.7 12.9 99 0.1 NNW 7 9 4 5 1013.4 1013.3 3.6
18/07:00am 12.9 12.6 12.7 99 0.1 NNW 6 9 3 5 1013.0 1012.9 3.6
18/06:53am 12.8 11.9 12.6 99 0.1 NNW 9 13 5 7 1012.9 1012.8 3.6
18/06:30am 12.8 12.3 12.6 99 0.1 WSW 7 7 4 4 1012.8 1012.7 3.6
18/06:00am 12.8 12.3 12.6 99 0.1 WSW 7 9 4 5 1012.9 1012.8 3.6
18/05:53am 12.8 12.3 12.6 99 0.1 WSW 7 7 4 4 1012.9 1012.8 3.6
18/05:40am 12.8 12.5 12.6 99 0.1 WSW 6 9 3 5 1012.7 1012.6 3.6
18/05:30am 12.7 12.3 12.5 99 0.1 WSW 6 9 3 5 1012.6 1012.5 3.6
18/05:06am 12.6 12.2 12.4 99 0.1 WSW 6 7 3 4 1012.7 1012.6 3.6
18/05:04am 12.6 12.2 12.4 99 0.1 WSW 6 7 3 4 1012.6 1012.5 3.6
18/05:00am 12.6 12.2 12.4 99 0.1 WSW 6 7 3 4 1012.6 1012.5 3.6
18/04:49am 12.5 11.9 12.2 98 0.2 WSW 7 9 4 5 1012.5 1012.4 3.6
18/04:30am 12.6 12.0 12.3 98 0.2 WSW 7 9 4 5 1012.5 1012.4 3.6
18/04:13am 12.5 12.0 12.2 98 0.2 WSW 6 7 3 4 1012.7 1012.6 3.6
18/04:00am 12.4 11.7 12.1 98 0.2 WSW 7 9 4 5 1012.6 1012.5 3.6
18/03:57am 12.5 12.0 12.2 98 0.2 WSW 6 9 3 5 1012.5 1012.4 3.6
18/03:40am 12.8 12.8 12.5 98 0.2 WSW 4 6 2 3 1012.4 1012.3 3.6
18/03:30am 12.9 12.6 12.6 98 0.2 WSW 6 7 3 4 1012.5 1012.4 3.6
18/03:19am 13.0 13.5 12.7 98 0.2 WSW 2 7 1 4 1012.7 1012.6 3.6
18/03:00am 13.0 12.7 12.7 98 0.2 WSW 6 7 3 4 1012.8 1012.7 3.4
18/02:30am 12.9 12.6 12.6 98 0.2 WSW 6 9 3 5 1012.9 1012.8 3.4
18/02:26am 12.9 12.6 12.6 98 0.2 SW 6 9 3 5 1013.0 1012.9 3.4
18/02:11am 12.8 11.4 12.3 97 0.3 SW 11 15 6 8 1013.1 1013.0 3.4
18/02:00am 12.8 11.4 12.3 97 0.3 SW 11 13 6 7 1012.9 1012.8 3.4
18/01:48am 12.9 11.6 12.4 97 0.3 SW 11 15 6 8 1013.3 1013.2 3.0
18/01:30am 12.9 11.6 12.4 97 0.3 SW 11 15 6 8 1013.3 1013.2 3.0
18/01:10am 13.0 11.3 12.4 96 0.3 SW 13 17 7 9 1013.5 1013.4 3.0
18/01:00am 13.2 11.9 12.6 96 0.3 SW 11 15 6 8 1013.6 1013.5 3.0
18/12:30am 13.6 13.1 12.7 94 0.5 WNW 7 13 4 7 1013.7 1013.6 2.6
18/12:25am 13.6 13.1 12.7 94 0.5 NW 7 9 4 5 1013.8 1013.7 2.6
18/12:03am 13.6 14.4 12.5 93 0.6 CALM 0 0 0 0 1014.0 1013.9 2.6
18/12:00am 13.6 14.4 12.5 93 0.6 CALM 0 0 0 0 1014.1 1014.0 2.6
 
Date/Time
EST
Temp
°C
App
Temp
°C
Dew
Point
Rel
Hum
%
Delta-T
°C
Wind Press
QNH
hPa
Press
MSL
hPa
Rain
since 9 am
mm
Dir
 
Spd
km/h
Gust
km/h
Spd
kts
Gust
kts
17/11:30pm 13.7 14.5 12.4 92 0.7 CALM 0 0 0 0 1014.5 1014.4 1.8
17/11:20pm 13.7 14.4 12.3 91 0.8 CALM 0 6 0 3 1014.5 1014.4 1.6
17/11:00pm 13.7 13.3 12.3 91 0.8 N 6 7 3 4 1014.7 1014.6 1.4
17/10:30pm 13.8 13.2 12.4 91 0.8 N 7 9 4 5 1015.1 1015.0 1.4
17/10:00pm 13.9 13.0 12.5 91 0.8 N 9 13 5 7 1015.4 1015.3 1.4
17/09:30pm 13.8 13.4 12.4 91 0.8 N 6 9 3 5 1015.4 1015.3 1.4
17/09:00pm 13.7 13.2 12.1 90 0.9 N 6 9 3 5 1015.7 1015.6 1.4
17/08:36pm 13.6 12.9 12.0 90 0.9 NNW 7 9 4 5 1016.0 1015.9 1.4
17/08:30pm 13.6 13.1 12.0 90 0.9 WSW 6 9 3 5 1016.0 1015.9 1.4
17/08:11pm 13.7 14.4 12.1 90 0.9 CALM 0 0 0 0 1016.1 1016.0 1.4
17/08:00pm 13.7 14.4 12.1 90 0.9 CALM 0 0 0 0 1016.1 1016.0 1.4
17/07:30pm 13.5 14.0 11.7 89 1.0 CALM 0 0 0 0 1016.5 1016.4 1.4
17/07:00pm 13.5 13.3 11.7 89 1.0 WSW 4 6 2 3 1016.9 1016.8 1.4
17/06:30pm 13.4 12.8 11.6 89 1.0 WSW 6 9 3 5 1016.3 1016.2 1.4
17/06:00pm 13.6 12.8 11.8 89 1.0 WSW 7 9 4 5 1017.2 1017.1 1.4
17/05:30pm 13.6 13.0 11.7 88 1.0 WSW 6 9 3 5 1016.7 1016.6 1.4
17/05:18pm 13.6 13.0 11.7 88 1.0 WSW 6 9 3 5 1016.8 1016.7 1.4
17/05:03pm 13.7 12.9 11.6 87 1.1 WSW 7 11 4 6 1017.3 1017.2 1.4
17/05:00pm 13.7 12.9 11.6 87 1.1 WSW 7 11 4 6 1017.1 1017.0 1.4
17/04:30pm 13.7 12.1 11.6 87 1.1 WNW 11 13 6 7 1018.0 1017.9 1.2
17/04:00pm 13.7 11.9 11.0 84 1.4 NE 11 15 6 8 1017.4 1017.3 1.0
17/03:30pm 13.9 11.6 10.5 80 1.8 NNE 13 19 7 10 1018.0 1017.9 0.6
17/03:00pm 14.7 13.0 9.9 73 2.5 N 9 13 5 7 1018.5 1018.4 0.2
17/02:30pm 15.4 13.6 9.3 67 3.1 N 9 13 5 7 1018.7 1018.6 0.0
17/02:00pm 16.0 14.4 8.2 60 3.9 NNE 6 9 3 5 1019.0 1018.9 0.0
17/01:30pm 15.8 14.7 8.3 61 3.8 ESE 4 9 2 5 1019.1 1019.0 0.0
17/01:00pm 15.8 14.1 8.3 61 3.8 ESE 7 13 4 7 1019.4 1019.3 0.0
17/12:30pm 15.7 13.6 8.2 61 3.8 E 9 13 5 7 1020.3 1020.3 0.0
17/12:00pm 16.2 14.1 8.4 60 4.0 E 9 15 5 8 1020.9 1020.9 0.0
17/11:30am 15.8 12.9 8.3 61 3.8 ESE 13 20 7 11 1021.9 1021.9 0.0
17/11:00am 15.2 11.6 8.4 64 3.4 ESE 17 24 9 13 1022.5 1022.5 0.0
17/10:30am 14.8 11.6 8.5 66 3.2 E 15 22 8 12 1023.3 1023.3 0.0
17/10:00am 14.7 11.5 8.6 67 3.1 ESE 15 20 8 11 1023.7 1023.7 0.0
17/09:30am 13.9 13.5 9.7 76 2.2 N 2 9 1 5 1024.1 1024.1 0.0
17/09:00am 12.6 11.5 10.0 84 1.3 NNW 6 9 3 5 1024.6 1024.6 0.0
17/08:30am 11.6 9.9 9.7 88 1.0 NNW 9 9 5 5 1024.6 1024.6 0.0
17/08:00am 10.7 9.2 9.1 90 0.8 NNW 7 9 4 5 1024.4 1024.4 0.0
17/07:30am 9.9 8.2 8.5 91 0.7 NNW 7 9 4 5 1024.0 1024.0 0.0
17/07:00am 9.1 7.2 7.5 90 0.8 NNW 7 7 4 4 1023.6 1023.6 0.0
17/06:30am 9.4 7.5 7.7 89 0.8 NNE 7 9 4 5 1023.6 1023.6 0.0
17/06:00am 10.0 9.5 7.9 87 1.0 CALM 0 0 0 0 1023.5 1023.5 0.0
17/05:30am 11.0 9.9 8.6 85 1.2 NNE 4 7 2 4 1023.3 1023.3 0.0
17/05:00am 11.5 10.0 8.5 82 1.5 NNE 6 6 3 3 1023.4 1023.4 0.0
17/04:30am 12.1 10.7 8.8 80 1.6 NNE 6 7 3 4 1023.5 1023.5 0.0
17/04:00am 12.2 10.7 8.5 78 1.8 NNE 6 7 3 4 1023.2 1023.2 0.0
17/03:30am 12.3 10.8 8.4 77 1.9 NNE 6 7 3 4 1023.0 1023.0 0.0
17/03:00am 12.6 10.9 8.5 76 2.0 NE 7 9 4 5 1023.2 1023.2 0.0
17/02:30am 12.3 10.8 9.3 82 1.5 SSW 7 9 4 5 1023.9 1023.9 0.0
17/02:00am 12.2 11.7 9.2 82 1.5 SSW 2 7 1 4 1024.3 1024.3 0.0
17/01:30am 12.2 10.8 9.0 81 1.6 SW 6 6 3 3 1024.8 1024.8 0.0
17/01:00am 12.2 10.8 8.9 80 1.6 SW 6 7 3 4 1025.1 1025.1 0.0
17/12:30am 12.6 11.2 8.7 77 1.9 SW 6 9 3 5 1025.6 1025.6 0.0
17/12:00am 12.8 11.3 8.5 75 2.1 SSW 6 7 3 4 1026.0 1026.0 0.0
 
Date/Time
EST
Temp
°C
App
Temp
°C
Dew
Point
Rel
Hum
%
Delta-T
°C
Wind Press
QNH
hPa
Press
MSL
hPa
Rain
since 9 am
mm
Dir
 
Spd
km/h
Gust
km/h
Spd
kts
Gust
kts
16/11:30pm 13.1 11.5 8.6 74 2.3 SSW 7 9 4 5 1026.3 1026.3 0.0
16/11:00pm 13.4 11.8 8.7 73 2.3 SSW 7 9 4 5 1026.6 1026.6 0.0
16/10:30pm 13.9 12.0 8.9 72 2.5 SSW 9 11 5 6 1026.5 1026.5 0.0
16/10:00pm 14.1 12.5 8.9 71 2.6 S 7 9 4 5 1026.6 1026.6 0.0
16/09:30pm 13.9 12.3 8.7 71 2.6 SSE 7 13 4 7 1026.4 1026.4 0.0
16/09:00pm 13.8 12.2 8.8 72 2.5 S 7 11 4 6 1026.5 1026.5 0.0
16/08:30pm 13.7 12.1 8.7 72 2.5 SSE 7 9 4 5 1026.4 1026.4 0.0
16/08:00pm 13.8 12.2 8.6 71 2.6 S 7 11 4 6 1026.5 1026.5 0.0
16/07:30pm 14.0 12.0 8.6 70 2.7 SSE 9 13 5 7 1026.2 1026.2 0.0
16/07:00pm 14.1 12.1 8.5 69 2.8 SSE 9 15 5 8 1025.6 1025.6 0.0
16/06:30pm 14.3 11.4 8.3 67 3.0 SSE 13 22 7 12 1025.5 1025.5 0.0
16/06:00pm 14.4 11.2 8.4 67 3.0 SSE 15 22 8 12 1025.6 1025.6 0.0
16/05:30pm 14.8 10.9 8.5 66 3.2 SSE 19 26 10 14 1025.2 1025.2 0.0
16/05:00pm 15.1 11.1 8.1 63 3.5 SSE 19 24 10 13 1024.9 1024.9 0.0
16/04:30pm 15.5 11.6 8.5 63 3.6 SSE 19 28 10 15 1024.7 1024.7 0.0
16/04:00pm 15.7 11.2 8.4 62 3.7 SSE 22 30 12 16 1024.7 1024.7 0.0
16/03:30pm 16.1 12.2 8.6 61 3.8 SSE 19 28 10 15 1024.6 1024.6 0.0
16/03:00pm 16.9 13.5 9.1 60 4.0 SSE 17 26 9 14 1024.4 1024.4 0.0
16/02:30pm 16.8 13.0 9.0 60 4.0 SSE 19 26 10 14 1024.3 1024.3 0.0
16/02:00pm 17.9 14.9 9.3 57 4.5 SSE 15 20 8 11 1024.5 1024.5 0.0
16/01:30pm 17.8 14.4 9.2 57 4.5 S 17 24 9 13 1024.6 1024.6 0.0
16/01:00pm 17.3 14.3 9.2 59 4.2 S 15 22 8 12 1024.8 1024.8 0.0
16/12:30pm 16.5 12.7 9.0 61 3.9 S 19 24 10 13 1025.1 1025.1 0.0
16/12:00pm 17.5 14.2 9.7 60 4.1 S 17 24 9 13 1025.5 1025.5 0.0
16/11:30am 16.9 13.8 10.3 65 3.5 S 17 26 9 14 1025.6 1025.6 0.0
16/11:00am 16.3 13.1 9.9 66 3.3 SSW 17 22 9 12 1025.5 1025.5 0.0
16/10:30am 15.9 12.8 10.4 70 2.9 SW 17 22 9 12 1025.7 1025.7 0.0
16/10:02am 15.7 13.0 11.7 77 2.2 SW 17 22 9 12 1026.0 1026.0 0.0
16/10:00am 15.7 13.0 11.7 77 2.2 SW 17 20 9 11 1025.9 1025.9 0.0
16/09:30am 15.7 13.3 12.6 82 1.7 SW 17 22 9 12 1025.9 1025.9 0.0
16/09:19am 15.5 13.1 12.6 83 1.6 SW 17 22 9 12 1025.6 1025.6 0.0
16/09:16am 15.5 12.7 12.6 83 1.6 SW 19 22 10 12 1025.6 1025.6 0.0
16/09:00am 15.4 12.5 12.9 85 1.4 WSW 20 26 11 14 1025.5 1025.5 0.0
16/08:30am 15.2 12.8 12.7 85 1.4 WSW 17 24 9 13 1024.9 1024.9 0.0
16/08:26am 15.2 12.4 12.7 85 1.4 WSW 19 24 10 13 1024.9 1024.9 0.0
16/08:00am 15.2 12.4 12.5 84 1.5 WSW 19 28 10 15 1024.6 1024.6 0.0
16/07:30am 14.9 12.5 12.6 86 1.3 W 17 22 9 12 1024.0 1024.0 0.0
16/07:00am 14.4 12.6 12.1 86 1.2 W 13 17 7 9 1024.0 1024.0 0.0
16/06:30am 14.7 12.2 12.2 85 1.4 WSW 17 24 9 13 1023.6 1023.6 0.0
16/06:00am 15.1 12.2 12.4 84 1.5 W 19 26 10 14 1022.9 1022.9 0.0
16/05:30am 15.6 12.8 12.7 83 1.6 W 19 26 10 14 1022.7 1022.7 0.0
16/05:00am 15.8 13.9 12.9 83 1.6 W 15 19 8 10 1022.0 1022.0 0.0
16/04:30am 16.0 14.1 13.1 83 1.6 W 15 22 8 12 1021.8 1021.8 0.0
16/04:00am 16.1 14.3 13.2 83 1.6 W 15 22 8 12 1021.7 1021.7 0.0
16/03:30am 16.2 14.5 13.7 85 1.4 W 15 20 8 11 1021.6 1021.6 0.0
16/03:00am 16.1 14.9 14.1 88 1.1 W 13 19 7 10 1021.6 1021.6 0.0
16/02:30am 16.0 14.9 14.4 90 0.9 W 13 19 7 10 1021.7 1021.7 0.0
16/02:10am 15.9 15.2 14.3 90 0.9 WSW 11 13 6 7 1021.7 1021.7 0.0
16/02:00am 15.8 15.0 14.0 89 1.0 WSW 11 15 6 8 1021.7 1021.7 0.0
16/01:38am 16.7 14.2 13.4 81 1.9 WSW 19 24 10 13 1021.8 1021.8 0.0
16/01:30am 17.2 15.0 13.3 78 2.2 W 17 22 9 12 1021.6 1021.6 0.0
16/01:00am 17.3 15.4 13.0 76 2.4 W 15 19 8 10 1021.5 1021.5 0.0
16/12:30am 17.4 14.9 13.5 78 2.2 WSW 19 26 10 14 1021.5 1021.5 0.0
16/12:00am 17.3 14.8 14.0 81 1.9 SW 20 24 11 13 1021.7 1021.7 0.0
 
Date/Time
EST
Temp
°C
App
Temp
°C
Dew
Point
Rel
Hum
%
Delta-T
°C
Wind Press
QNH
hPa
Press
MSL
hPa
Rain
since 9 am
mm
Dir
 
Spd
km/h
Gust
km/h
Spd
kts
Gust
kts
15/11:30pm 16.9 17.5 15.2 90 1.0 NNW 6 9 3 5 1021.7 1021.7 0.0
15/11:00pm 16.8 17.2 15.2 90 0.9 NNW 7 9 4 5 1021.6 1021.6 0.0
15/10:30pm 16.9 16.9 15.1 89 1.0 NW 9 11 5 6 1021.7 1021.7 0.0
15/10:00pm 17.1 17.4 14.9 87 1.3 SW 7 9 4 5 1021.4 1021.4 0.0
15/09:30pm 17.1 17.6 14.9 87 1.3 SW 6 7 3 4 1021.3 1021.3 0.0
15/09:00pm 16.9 16.7 14.7 87 1.3 SW 9 11 5 6 1020.9 1020.9 0.0
15/08:30pm 17.0 17.2 14.6 86 1.4 SSW 7 11 4 6 1020.4 1020.4 0.0
15/08:00pm 17.2 16.6 14.7 85 1.4 SSW 11 17 6 9 1019.9 1019.9 0.0
15/07:30pm 17.8 16.2 14.9 83 1.7 SSW 17 22 9 12 1019.5 1019.4 0.0
15/07:00pm 17.9 15.8 14.6 81 1.9 SSW 19 28 10 15 1018.9 1018.8 0.0
15/06:30pm 18.3 16.7 14.0 76 2.5 SSW 15 19 8 10 1018.3 1018.2 0.0
15/06:00pm 18.9 17.7 14.0 73 2.8 S 13 20 7 11 1017.7 1017.6 0.0
15/05:30pm 19.6 16.4 14.2 71 3.1 S 24 35 13 19 1017.2 1017.1 0.0
15/05:00pm 22.5 19.1 13.8 58 5.1 S 24 33 13 18 1016.4 1016.3 0.0
15/04:30pm 26.9 24.0 12.2 40 8.5 WNW 19 30 10 16 1015.8 1015.7 0.0
15/04:00pm 27.9 25.0 12.3 38 9.1 NW 19 28 10 15 1015.7 1015.6 0.0
15/03:30pm 27.7 24.6 12.1 38 9.0 NNW 20 32 11 17 1015.5 1015.4 0.0
15/03:00pm 27.9 24.3 11.9 37 9.2 NW 22 30 12 16 1015.5 1015.4 0.0
15/02:30pm 28.0 24.4 12.0 37 9.3 NW 22 33 12 18 1015.3 1015.2 0.0
15/02:00pm 28.3 24.4 12.2 37 9.4 NNW 24 37 13 20 1015.3 1015.2 0.0
15/01:30pm 27.3 23.4 12.1 39 8.8 N 24 35 13 19 1015.3 1015.2 0.0

Other Formats:

Comma delimited format used in spreadsheet applications
http://www.bom.gov.au/fwo/IDV60801/IDV60801.94865.axf

JavaScript Object Notation format (JSON) in row-major order
http://www.bom.gov.au/fwo/IDV60801/IDV60801.94865.json